Time;durP1;ratioP1;P1;durP2;ratioP2;P2;SDS_P1;SDS_P2;PMS_P1;PMS_P2;Temp;Humidity;BMP_temperature;BMP_pressure;BME280_temperature;BME280_humidity;BME280_pressure;Samples;Min_cycle;Max_cycle;Signal;HPM_P1;HPM_P2
2022/02/15 00:00:06;;;;;;;16.75;11.90;;;;;;;2.83;67.29;96001.38;1659022;85;20953;-84
2022/02/15 00:02:34;;;;;;;17.05;11.93;;;;;;;2.93;67.07;96004.23;1661781;83;21016;-84
2022/02/15 00:05:00;;;;;;;16.48;11.93;;;;;;;3.08;67.36;95991.69;1659059;86;21024;-84
2022/02/15 00:07:25;;;;;;;15.68;10.18;;;;;;;3.20;67.44;95983.31;1659066;86;21026;-84
2022/02/15 00:09:51;;;;;;;15.65;12.55;;;;;;;3.28;67.53;95980.36;1658977;86;21437;-84
2022/02/15 00:12:18;;;;;;;13.25;11.00;;;;;;;3.38;67.22;95978.18;1659123;86;21032;-84
2022/02/15 00:14:44;;;;;;;19.12;12.85;;;;;;;3.40;67.24;95977.07;1658921;86;21008;-84
2022/02/15 00:17:10;;;;;;;16.35;10.90;;;;;;;3.38;67.25;95980.75;1659111;86;21043;-83
2022/02/15 00:19:35;;;;;;;15.05;11.57;;;;;;;3.38;67.68;95984.13;1659024;86;20972;-83
2022/02/15 00:22:01;;;;;;;13.50;11.05;;;;;;;3.42;67.49;95982.09;1659135;86;21299;-83
2022/02/15 00:24:27;;;;;;;14.93;11.53;;;;;;;3.43;67.53;95980.66;1658732;86;21000;-84
2022/02/15 00:26:52;;;;;;;14.95;10.58;;;;;;;3.46;67.58;95979.55;1638604;86;20980;-83
2022/02/15 00:29:18;;;;;;;13.65;11.53;;;;;;;3.51;67.92;95978.14;1659014;86;21062;-84
2022/02/15 00:31:45;;;;;;;14.65;11.48;;;;;;;3.58;67.74;95977.09;1658599;86;21096;-84
2022/02/15 00:34:10;;;;;;;15.63;11.10;;;;;;;3.66;67.78;95980.19;1658756;86;21514;-83
2022/02/15 00:36:36;;;;;;;11.10;8.80;;;;;;;3.74;67.80;95978.95;1659190;86;21067;-84
2022/02/15 00:39:02;;;;;;;12.18;10.18;;;;;;;3.79;67.70;95966.48;1659018;86;21056;-84
2022/02/15 00:41:28;;;;;;;14.73;10.95;;;;;;;3.85;67.40;95974.87;1659364;86;21024;-84
2022/02/15 00:43:53;;;;;;;11.57;8.55;;;;;;;3.89;67.29;95970.55;1658978;86;21088;-84
2022/02/15 00:46:19;;;;;;;12.95;10.03;;;;;;;3.89;67.38;95973.12;1659078;86;21112;-84
2022/02/15 00:48:45;;;;;;;12.68;9.48;;;;;;;3.92;67.38;95970.77;1659245;86;21095;-84
2022/02/15 00:51:11;;;;;;;13.30;8.55;;;;;;;3.95;67.22;95969.65;1659264;86;21462;-83
2022/02/15 00:53:36;;;;;;;11.48;9.43;;;;;;;3.93;67.32;95962.09;1675833;85;21032;-84
2022/02/15 00:56:03;;;;;;;11.03;9.50;;;;;;;3.95;67.21;95955.51;1681237;85;21056;-83
2022/02/15 00:58:29;;;;;;;11.43;8.28;;;;;;;3.98;66.89;95958.58;1681167;85;21458;-83
2022/02/15 01:00:55;;;;;;;10.72;8.30;;;;;;;4.00;66.93;95963.09;1681129;85;21048;-83
2022/02/15 01:03:21;;;;;;;12.58;8.73;;;;;;;4.02;66.74;95952.17;1680983;85;21406;-83
2022/02/15 01:05:46;;;;;;;10.80;9.70;;;;;;;4.04;66.71;95948.97;1681133;85;21019;-83
2022/02/15 01:08:12;;;;;;;12.15;9.20;;;;;;;4.01;66.46;95944.13;1681083;85;20977;-83
2022/02/15 01:10:40;;;;;;;8.68;7.45;;;;;;;3.99;66.58;95947.34;1680973;85;21517;-83
2022/02/15 01:13:05;;;;;;;10.72;8.80;;;;;;;3.98;66.56;95937.20;1680989;85;21359;-83
2022/02/15 01:15:32;;;;;;;9.80;8.30;;;;;;;3.98;66.47;95938.50;1681006;85;21398;-83
2022/02/15 01:17:59;;;;;;;11.03;9.83;;;;;;;3.98;66.45;95937.20;1680742;85;21179;-83
2022/02/15 01:20:25;;;;;;;9.75;8.75;;;;;;;4.00;66.27;95933.52;1681060;85;21387;-83
2022/02/15 01:22:51;;;;;;;10.00;8.53;;;;;;;3.99;66.30;95933.20;1680943;85;21080;-83
2022/02/15 01:25:16;;;;;;;10.72;9.18;;;;;;;3.97;66.22;95922.74;1681136;85;20953;-83
2022/02/15 01:27:42;;;;;;;12.80;9.20;;;;;;;3.93;66.36;95922.25;1681174;85;21411;-83
2022/02/15 01:30:08;;;;;;;12.55;9.40;;;;;;;3.91;66.25;95922.88;1681397;84;21061;-83
2022/02/15 01:32:34;;;;;;;11.03;8.98;;;;;;;3.90;66.13;95927.22;1683856;84;20997;-83
2022/02/15 01:34:59;;;;;;;8.98;7.47;;;;;;;3.89;66.19;95924.77;1681029;85;21029;-84
2022/02/15 01:37:26;;;;;;;10.45;8.70;;;;;;;3.89;66.31;95915.77;1681136;85;21000;-83
2022/02/15 01:39:52;;;;;;;10.28;8.10;;;;;;;3.87;66.15;95917.70;1681141;85;21083;-84
2022/02/15 01:42:18;;;;;;;10.68;9.20;;;;;;;3.88;66.42;95914.97;1681459;84;20988;-83
2022/02/15 01:44:44;;;;;;;10.80;8.58;;;;;;;3.89;66.41;95910.16;1662675;85;21007;-83
2022/02/15 01:47:30;;;;;;;11.10;8.58;;;;;;;3.89;66.36;95917.86;1681070;85;21379;-83
2022/02/15 01:49:56;;;;;;;10.10;7.70;;;;;;;3.90;66.43;95902.80;1663632;85;21501;-83
2022/02/15 01:52:22;;;;;;;10.23;9.20;;;;;;;3.87;66.34;95912.55;1680542;85;21572;-83
2022/02/15 01:54:54;;;;;;;12.05;9.58;;;;;;;3.81;66.31;95900.32;1659169;86;21099;-83
2022/02/15 01:57:19;;;;;;;10.43;8.93;;;;;;;3.78;66.42;95904.48;1659392;86;21016;-83
2022/02/15 01:59:45;;;;;;;9.15;7.92;;;;;;;3.76;66.46;95898.22;1659255;86;21383;-83
2022/02/15 02:02:14;;;;;;;10.85;9.10;;;;;;;3.68;66.42;95881.44;1659279;86;21063;-83
2022/02/15 02:07:23;;;;;;;10.65;8.18;;;;;;;3.71;66.33;95902.98;1633477;88;21050;-83
2022/02/15 02:09:49;;;;;;;8.58;7.17;;;;;;;3.73;66.34;95895.92;1627712;88;21064;-83
2022/02/15 02:12:15;;;;;;;10.75;8.13;;;;;;;3.75;66.37;95903.50;1624330;88;22030;-83
2022/02/15 02:14:40;;;;;;;11.80;8.63;;;;;;;3.75;66.32;95905.59;1626126;87;21098;-83
2022/02/15 02:17:06;;;;;;;9.23;7.80;;;;;;;3.77;66.40;95906.73;1659472;86;21011;-83
2022/02/15 02:19:33;;;;;;;14.30;8.98;;;;;;;3.74;66.36;95903.98;1658986;86;21076;-83
2022/02/15 02:22:01;;;;;;;11.48;7.75;;;;;;;3.71;66.33;95900.41;1659056;86;21370;-83
2022/02/15 02:24:26;;;;;;;11.05;7.85;;;;;;;3.70;66.36;95901.84;1629397;88;20999;-83
2022/02/15 02:26:52;;;;;;;10.40;6.92;;;;;;;3.68;66.34;95896.05;1624311;88;21428;-83
2022/02/15 02:29:17;;;;;;;9.95;7.78;;;;;;;3.65;66.24;95902.78;1624317;88;21080;-83
2022/02/15 02:31:45;;;;;;;8.88;6.65;;;;;;;3.66;66.24;95899.26;1639067;87;21040;-83
2022/02/15 02:34:10;;;;;;;10.03;8.50;;;;;;;3.71;66.33;95899.60;1650781;87;21148;-83
2022/02/15 02:36:48;;;;;;;11.80;8.25;;;;;;;3.70;66.21;95894.94;1650920;86;20996;-83
2022/02/15 02:39:13;;;;;;;9.85;7.33;;;;;;;3.69;66.20;95901.04;1650762;86;21001;-83
2022/02/15 02:41:39;;;;;;;9.80;8.08;;;;;;;3.67;66.17;95897.02;1650719;86;21510;-83
2022/02/15 02:44:05;;;;;;;10.55;7.53;;;;;;;3.67;66.11;95908.09;1650687;86;21025;-83
2022/02/15 02:46:31;;;;;;;9.65;7.33;;;;;;;3.72;66.16;95905.88;1650828;86;21028;-83
2022/02/15 02:48:56;;;;;;;10.43;7.28;;;;;;;3.77;66.24;95902.88;1649430;86;21419;-83
2022/02/15 02:51:22;;;;;;;10.48;8.45;;;;;;;3.80;65.96;95898.71;1650497;86;21068;-83
2022/02/15 02:53:48;;;;;;;9.55;7.80;;;;;;;3.83;65.82;95900.97;1661455;86;21174;-83
2022/02/15 02:56:14;;;;;;;6.53;5.90;;;;;;;3.85;65.61;95890.06;1667749;86;21092;-83
2022/02/15 02:58:39;;;;;;;10.03;7.87;;;;;;;3.88;65.47;95899.55;1667762;86;21443;-84
2022/02/15 03:01:05;;;;;;;7.78;6.17;;;;;;;3.94;65.27;95896.87;1667718;86;21028;-83
2022/02/15 03:03:31;;;;;;;8.50;6.67;;;;;;;3.98;64.73;95902.02;1667838;86;21143;-84
2022/02/15 03:05:58;;;;;;;8.48;6.37;;;;;;;4.05;64.80;95902.21;1667632;86;21441;-83
2022/02/15 03:08:24;;;;;;;8.15;6.30;;;;;;;4.11;64.56;95900.33;1667731;86;21091;-83
2022/02/15 03:10:49;;;;;;;7.72;5.95;;;;;;;4.12;64.47;95905.80;1667558;86;21124;-83
2022/02/15 03:13:15;;;;;;;9.65;7.75;;;;;;;4.11;64.37;95904.19;1667790;86;21063;-83
2022/02/15 03:15:41;;;;;;;8.38;6.78;;;;;;;4.10;64.63;95912.86;1667829;86;21100;-83
2022/02/15 03:18:07;;;;;;;7.58;6.30;;;;;;;4.04;64.65;95911.69;1667738;86;21076;-83
2022/02/15 03:20:33;;;;;;;9.25;7.55;;;;;;;3.99;64.76;95910.55;1646259;86;20993;-83
2022/02/15 03:22:59;;;;;;;8.50;6.62;;;;;;;3.98;65.03;95915.36;1667712;86;21363;-83
2022/02/15 03:25:25;;;;;;;17.30;10.15;;;;;;;3.91;64.93;95919.83;1667779;86;21052;-83
2022/02/15 03:27:51;;;;;;;9.45;8.00;;;;;;;3.88;65.06;95916.25;1667724;86;21071;-83
2022/02/15 03:30:16;;;;;;;10.50;8.68;;;;;;;3.87;65.29;95919.78;1667098;85;21028;-83
2022/02/15 03:32:42;;;;;;;10.00;8.83;;;;;;;3.87;65.29;95919.78;1663382;86;21091;-83
2022/02/15 03:35:08;;;;;;;10.80;8.80;;;;;;;3.85;65.35;95911.91;1667658;86;21103;-83
2022/02/15 03:37:34;;;;;;;9.93;8.93;;;;;;;3.82;65.63;95916.88;1667479;86;21040;-83
2022/02/15 03:40:01;;;;;;;12.28;9.95;;;;;;;3.81;66.08;95906.27;1667782;86;21385;-83
2022/02/15 03:45:10;;;;;;;10.48;8.78;;;;;;;3.79;66.34;95899.19;1667842;86;21032;-83
2022/02/15 03:47:36;;;;;;;11.10;8.20;;;;;;;3.80;66.44;95904.66;1667697;86;21055;-84
2022/02/15 03:50:02;;;;;;;10.50;8.58;;;;;;;3.81;66.74;95908.03;1667732;86;22007;-83
2022/02/15 03:52:28;;;;;;;8.50;7.45;;;;;;;3.81;66.45;95909.31;1671631;86;21032;-83
2022/02/15 03:54:54;;;;;;;10.00;8.98;;;;;;;3.82;66.53;95905.78;1650781;85;21034;-83
2022/02/15 03:57:19;;;;;;;8.98;7.97;;;;;;;3.81;66.31;95898.56;1629843;87;20999;-83
2022/02/15 03:59:45;;;;;;;10.98;7.80;;;;;;;3.81;66.34;95908.83;1650299;87;20978;-84
2022/02/15 04:02:11;;;;;;;10.50;7.90;;;;;;;3.85;66.06;95898.58;1650415;87;21016;-84
2022/02/15 04:04:36;;;;;;;9.03;7.00;;;;;;;3.91;65.92;95909.55;1650259;87;21013;-83
2022/02/15 04:07:02;;;;;;;7.03;5.58;;;;;;;3.95;65.86;95916.47;1650402;87;21442;-83
2022/02/15 04:09:28;;;;;;;9.05;7.12;;;;;;;3.98;65.59;95911.50;1650242;87;21065;-83
2022/02/15 04:11:54;;;;;;;7.80;6.30;;;;;;;4.03;65.28;95904.12;1650254;87;21561;-83
2022/02/15 04:14:19;;;;;;;8.73;7.28;;;;;;;4.07;65.12;95910.13;1650405;87;21088;-83
2022/02/15 04:16:45;;;;;;;6.08;5.47;;;;;;;4.07;65.20;95905.46;1650327;87;21112;-83
2022/02/15 04:19:11;;;;;;;8.38;6.90;;;;;;;4.07;64.98;95902.41;1650283;87;21110;-83
2022/02/15 04:21:37;;;;;;;8.35;6.08;;;;;;;4.08;64.99;95906.59;1650237;87;21037;-83
2022/02/15 04:24:03;;;;;;;9.45;7.65;;;;;;;4.08;64.98;95898.88;1654333;87;21009;-84
2022/02/15 04:26:29;;;;;;;8.15;6.55;;;;;;;4.12;65.07;95901.94;1650605;87;21024;-83
2022/02/15 04:28:55;;;;;;;7.42;5.72;;;;;;;4.10;65.16;95906.44;1650113;87;20985;-83
2022/02/15 04:31:20;;;;;;;7.92;7.12;;;;;;;4.09;65.18;95903.53;1645178;85;21412;-83
2022/02/15 04:33:46;;;;;;;7.85;5.12;;;;;;;4.12;65.10;95912.22;1633873;87;21053;-84
2022/02/15 04:36:12;;;;;;;7.53;6.35;;;;;;;4.13;64.98;95920.27;1650261;87;21513;-83
2022/02/15 04:38:38;;;;;;;8.68;6.80;;;;;;;4.15;64.79;95910.63;1650253;87;21048;-84
2022/02/15 04:41:04;;;;;;;9.43;7.12;;;;;;;4.16;64.59;95901.95;1650319;87;21033;-83
2022/02/15 04:43:30;;;;;;;9.48;7.05;;;;;;;4.18;64.75;95910.31;1629596;87;21526;-83
2022/02/15 04:45:56;;;;;;;7.62;5.78;;;;;;;4.15;64.57;95905.00;1650291;87;20981;-83
2022/02/15 04:48:21;;;;;;;6.80;6.03;;;;;;;4.17;64.23;95912.08;1650317;87;21057;-83
2022/02/15 04:50:47;;;;;;;8.25;6.25;;;;;;;4.20;64.39;95909.20;1650284;87;21052;-84
2022/02/15 04:53:13;;;;;;;7.15;5.45;;;;;;;4.15;64.18;95910.15;1650142;86;21441;-83
2022/02/15 04:55:38;;;;;;;6.42;5.45;;;;;;;4.12;63.96;95916.89;1650327;87;21021;-83
2022/02/15 04:58:04;;;;;;;7.92;6.37;;;;;;;4.09;64.24;95918.97;1650243;87;21005;-84
2022/02/15 05:00:30;;;;;;;7.28;5.72;;;;;;;3.99;64.20;95935.77;1650271;87;21048;-83
2022/02/15 05:02:56;;;;;;;12.47;9.23;;;;;;;3.89;64.77;95952.56;1650232;87;21049;-84
2022/02/15 05:05:21;;;;;;;15.38;11.22;;;;;;;3.78;64.53;95954.11;1650345;87;21339;-83
2022/02/15 05:07:47;;;;;;;13.40;10.55;;;;;;;3.70;64.64;95963.03;1650313;87;21032;-83
2022/02/15 05:10:13;;;;;;;16.15;11.78;;;;;;;3.60;64.83;95960.56;1650216;87;20985;-84
2022/02/15 05:12:39;;;;;;;13.25;8.88;;;;;;;3.52;64.90;95942.51;1650201;86;21012;-83
2022/02/15 05:15:10;;;;;;;9.70;7.05;;;;;;;3.45;65.22;95945.35;1650147;87;21032;-83
2022/02/15 05:17:43;;;;;;;8.33;7.00;;;;;;;3.33;65.51;95946.53;1650338;87;21016;-83
2022/02/15 05:20:07;;;;;;;7.70;5.45;;;;;;;3.22;65.56;95948.02;1649737;87;21037;-82
2022/02/15 05:22:33;;;;;;;9.25;5.65;;;;;;;3.13;65.88;95956.14;1650341;87;20970;-83
2022/02/15 05:24:59;;;;;;;8.73;6.72;;;;;;;3.04;66.12;95956.20;1650414;87;21080;-83
2022/02/15 05:27:24;;;;;;;8.25;6.85;;;;;;;2.92;66.30;95955.11;1650587;87;21456;-83
2022/02/15 05:29:50;;;;;;;8.55;6.50;;;;;;;2.83;66.59;95955.19;1650693;87;21124;-83
2022/02/15 05:32:16;;;;;;;15.95;10.05;;;;;;;2.74;66.80;95951.71;1650352;87;21107;-83
2022/02/15 05:34:42;;;;;;;7.95;6.47;;;;;;;2.62;66.77;95951.12;1650338;87;21034;-83
2022/02/15 05:37:08;;;;;;;9.78;7.97;;;;;;;2.59;67.13;95944.16;1650365;87;21057;-83
2022/02/15 05:39:34;;;;;;;33.63;18.52;;;;;;;2.58;67.44;95945.92;1650318;87;21012;-83
2022/02/15 05:42:00;;;;;;;68.20;32.70;;;;;;;2.63;67.44;95942.95;1650407;87;21534;-83
2022/02/15 05:44:26;;;;;;;17.02;9.85;;;;;;;2.69;67.42;95942.36;1650515;87;21093;-83
2022/02/15 05:46:51;;;;;;;12.33;9.30;;;;;;;2.80;67.59;95938.80;1650421;87;21092;-83
2022/02/15 05:49:17;;;;;;;11.65;7.47;;;;;;;2.92;67.40;95944.04;1650438;87;21486;-83
2022/02/15 05:51:43;;;;;;;11.43;7.30;;;;;;;3.03;67.38;95945.13;1650420;87;21049;-84
2022/02/15 05:54:09;;;;;;;15.15;8.00;;;;;;;3.16;67.11;95958.41;1656756;86;21104;-83
2022/02/15 05:56:35;;;;;;;7.97;6.80;;;;;;;3.30;67.01;95963.52;1660952;86;21035;-83
2022/02/15 05:59:01;;;;;;;8.10;6.58;;;;;;;3.41;66.81;95965.03;1655899;87;21080;-84
2022/02/15 06:01:27;;;;;;;9.40;6.28;;;;;;;3.49;66.59;95967.21;1656173;86;21002;-83
2022/02/15 06:04:11;;;;;;;10.75;7.60;;;;;;;3.60;66.44;95966.99;1656359;86;21052;-83
2022/02/15 06:06:39;;;;;;;8.93;6.20;;;;;;;3.69;66.25;95968.33;1656418;86;21324;-83
2022/02/15 06:09:05;;;;;;;12.05;9.23;;;;;;;3.74;65.67;95965.66;1655875;86;21032;-83
2022/02/15 06:11:30;;;;;;;10.20;7.15;;;;;;;3.79;65.82;95971.14;1656289;86;21502;-83
2022/02/15 06:13:57;;;;;;;8.68;7.30;;;;;;;3.82;65.86;95964.41;1656295;86;21017;-84
2022/02/15 06:16:24;;;;;;;39.58;13.55;;;;;;;3.87;65.46;95977.61;1655983;87;21001;-83
2022/02/15 06:18:52;;;;;;;11.35;6.85;;;;;;;3.91;65.37;95982.81;1656102;86;21049;-83
2022/02/15 06:21:19;;;;;;;12.50;8.40;;;;;;;3.90;65.34;95988.91;1655415;86;21060;-83
2022/02/15 06:23:45;;;;;;;8.20;6.40;;;;;;;3.81;65.17;95979.98;1656521;86;20957;-83
2022/02/15 06:26:11;;;;;;;11.55;8.35;;;;;;;3.88;65.26;96004.93;1656116;86;21011;-82
2022/02/15 06:28:36;;;;;;;27.62;17.55;;;;;;;3.81;65.72;96009.55;1656228;86;21052;-83
2022/02/15 06:31:02;;;;;;;26.33;18.67;;;;;;;3.70;65.59;96007.20;1655899;86;21416;-83
2022/02/15 06:33:28;;;;;;;32.53;20.45;;;;;;;3.58;65.73;96018.20;1655874;87;21073;-83
2022/02/15 06:35:54;;;;;;;24.43;17.42;;;;;;;3.48;65.91;96025.96;1655904;86;20993;-83
2022/02/15 06:38:19;;;;;;;24.72;16.67;;;;;;;3.35;65.94;96031.13;1655996;87;21546;-83
2022/02/15 06:40:45;;;;;;;24.15;15.70;;;;;;;3.27;66.32;96031.86;1655864;86;20985;-83
2022/02/15 06:43:11;;;;;;;23.20;15.43;;;;;;;3.18;66.42;96037.85;1656124;86;21001;-83
2022/02/15 06:45:37;;;;;;;18.87;15.75;;;;;;;3.15;66.61;96044.09;1655948;86;21368;-83
2022/02/15 06:48:03;;;;;;;16.05;12.28;;;;;;;3.08;66.65;96052.02;1655971;86;20989;-83
2022/02/15 06:50:29;;;;;;;13.38;9.68;;;;;;;3.06;66.84;96053.11;1656019;86;21410;-83
2022/02/15 06:52:55;;;;;;;11.08;8.90;;;;;;;3.00;67.35;96053.22;1655938;86;20993;-83
2022/02/15 06:55:21;;;;;;;11.10;9.60;;;;;;;2.91;67.22;96057.43;1649901;85;21467;-83
2022/02/15 06:57:46;;;;;;;11.85;8.58;;;;;;;2.85;67.49;96061.86;1648462;87;21148;-84
2022/02/15 07:00:14;;;;;;;10.75;7.90;;;;;;;2.81;67.59;96058.44;1652503;86;21041;-83
2022/02/15 07:02:39;;;;;;;13.18;9.13;;;;;;;2.77;67.61;96066.91;1635418;86;21387;-83
2022/02/15 07:05:07;;;;;;;13.30;8.28;;;;;;;2.73;67.79;96057.84;1657441;86;21096;-83
2022/02/15 07:07:35;;;;;;;11.15;8.00;;;;;;;2.69;67.96;96052.67;1654215;87;20989;-83
2022/02/15 07:10:02;;;;;;;9.65;7.35;;;;;;;2.64;68.25;96052.30;1650434;87;21352;-83
2022/02/15 07:12:28;;;;;;;12.18;9.60;;;;;;;2.56;68.31;96059.39;1650318;87;21092;-83
2022/02/15 07:14:54;;;;;;;9.98;7.78;;;;;;;2.51;68.47;96048.76;1650295;87;20950;-83
2022/02/15 07:17:20;;;;;;;8.30;7.35;;;;;;;2.51;68.43;96049.23;1650258;87;21024;-83
2022/02/15 07:19:45;;;;;;;9.30;7.30;;;;;;;2.57;68.67;96047.38;1650355;87;20954;-83
2022/02/15 07:22:13;;;;;;;9.30;6.50;;;;;;;2.75;68.60;96047.44;1649954;87;21125;-83
2022/02/15 07:24:40;;;;;;;8.95;6.00;;;;;;;2.87;68.39;96050.98;1650357;86;21017;-83
2022/02/15 07:27:06;;;;;;;9.25;6.42;;;;;;;2.97;68.04;96051.75;1650479;87;21005;-83
2022/02/15 07:29:32;;;;;;;11.83;7.22;;;;;;;3.13;67.74;96056.27;1650371;86;21093;-83
2022/02/15 07:31:58;;;;;;;9.40;7.25;;;;;;;3.33;67.58;96054.38;1650342;87;21104;-83
2022/02/15 07:34:23;;;;;;;7.67;6.10;;;;;;;3.48;67.06;96055.98;1650320;87;21073;-83
2022/02/15 07:36:50;;;;;;;8.40;6.10;;;;;;;3.60;67.04;96064.62;1650308;87;21069;-84
2022/02/15 07:39:16;;;;;;;11.55;7.28;;;;;;;3.70;66.66;96068.86;1650287;86;21096;-83
2022/02/15 07:41:42;;;;;;;12.03;7.22;;;;;;;3.78;66.57;96065.91;1650238;87;21547;-83
2022/02/15 07:44:07;;;;;;;10.98;6.85;;;;;;;3.82;66.27;96068.50;1650378;87;21036;-84
2022/02/15 07:46:33;;;;;;;9.33;6.30;;;;;;;3.87;66.46;96077.05;1650388;87;21093;-84
2022/02/15 07:48:59;;;;;;;7.60;5.97;;;;;;;3.87;66.43;96081.70;1650399;87;21555;-83
2022/02/15 07:51:25;;;;;;;10.10;6.17;;;;;;;3.85;66.09;96085.39;1650181;87;21080;-83
2022/02/15 07:53:50;;;;;;;7.35;5.45;;;;;;;3.86;66.36;96083.95;1651293;86;21128;-84
2022/02/15 07:56:16;;;;;;;7.55;4.90;;;;;;;3.83;66.33;96085.53;1656632;86;21500;-83
2022/02/15 07:58:42;;;;;;;14.38;7.78;;;;;;;3.80;65.98;96083.75;1655952;87;21156;-83
2022/02/15 08:01:08;;;;;;;9.73;6.20;;;;;;;3.85;66.32;96087.95;1651533;86;21032;-83
2022/02/15 08:03:33;;;;;;;13.32;6.30;;;;;;;3.86;66.69;96083.95;1655891;86;21411;-84
2022/02/15 08:05:59;;;;;;;7.28;4.92;;;;;;;3.86;66.30;96089.09;1655999;86;21111;-83
2022/02/15 08:08:25;;;;;;;7.35;5.22;;;;;;;3.91;66.21;96087.39;1656230;86;21048;-84
2022/02/15 08:10:51;;;;;;;8.78;5.72;;;;;;;3.96;66.16;96080.51;1656176;86;21482;-83
2022/02/15 08:13:21;;;;;;;9.13;6.17;;;;;;;3.99;65.79;96084.87;1655602;87;21124;-83
2022/02/15 08:15:49;;;;;;;7.58;5.45;;;;;;;4.05;65.70;96075.27;1704609;83;22078;-84
2022/02/15 08:18:15;;;;;;;9.13;6.60;;;;;;;4.15;65.42;96076.00;1704435;84;21014;-84
2022/02/15 08:20:41;;;;;;;10.48;7.95;;;;;;;4.24;65.09;96073.03;1704548;83;21087;-83
2022/02/15 08:23:12;;;;;;;9.00;6.28;;;;;;;4.37;65.23;96072.12;1704057;84;21033;-83
2022/02/15 08:25:37;;;;;;;8.35;6.15;;;;;;;4.46;65.17;96076.86;1704440;84;20946;-84
2022/02/15 08:28:04;;;;;;;6.80;5.35;;;;;;;4.57;64.61;96075.34;1704529;84;21008;-83
2022/02/15 08:30:30;;;;;;;6.95;5.10;;;;;;;4.78;64.65;96079.62;1704197;84;21005;-83
2022/02/15 08:32:55;;;;;;;7.67;5.97;;;;;;;4.89;64.04;96072.61;1706166;83;20965;-83
2022/02/15 08:35:21;;;;;;;7.33;5.67;;;;;;;4.97;63.52;96072.63;1704521;83;21005;-84
2022/02/15 08:37:47;;;;;;;7.50;5.67;;;;;;;5.08;63.53;96079.61;1704327;83;21476;-84
2022/02/15 08:40:13;;;;;;;11.45;7.08;;;;;;;5.18;63.32;96078.18;1684580;84;21036;-84
2022/02/15 08:42:40;;;;;;;9.45;7.17;;;;;;;5.27;63.18;96086.77;1704173;84;21119;-84
2022/02/15 08:45:07;;;;;;;10.08;7.90;;;;;;;5.39;62.80;96078.59;1705053;83;20976;-83
2022/02/15 08:47:33;;;;;;;11.93;9.68;;;;;;;5.52;62.79;96085.85;1704185;84;21005;-84
2022/02/15 08:49:59;;;;;;;10.53;8.05;;;;;;;5.62;62.02;96083.95;1704269;84;21430;-83
2022/02/15 08:52:26;;;;;;;9.33;7.33;;;;;;;5.73;62.13;96084.15;1683222;84;21017;-83
2022/02/15 08:54:53;;;;;;;10.88;8.95;;;;;;;5.80;62.31;96085.11;1706963;82;21359;-83
2022/02/15 08:57:20;;;;;;;10.68;8.13;;;;;;;5.86;61.71;96086.27;1705156;84;20992;-84
2022/02/15 08:59:47;;;;;;;12.37;8.38;;;;;;;5.94;61.96;96090.97;1698988;84;21020;-83
2022/02/15 09:02:12;;;;;;;11.28;7.87;;;;;;;6.04;61.49;96092.59;1699366;84;21381;-84
2022/02/15 09:04:38;;;;;;;11.12;7.55;;;;;;;6.11;61.53;96096.94;1699166;84;21026;-84
2022/02/15 09:07:04;;;;;;;9.83;7.17;;;;;;;6.17;61.29;96089.03;1699344;84;21040;-83
2022/02/15 09:09:30;;;;;;;10.32;6.50;;;;;;;6.20;61.37;96097.28;1699336;83;21015;-83
2022/02/15 09:11:56;;;;;;;10.60;8.28;;;;;;;6.27;61.44;96100.01;1699133;84;20980;-84
2022/02/15 09:14:22;;;;;;;9.78;7.62;;;;;;;6.34;60.75;96098.37;1699383;84;21409;-83
2022/02/15 09:16:47;;;;;;;9.38;6.65;;;;;;;6.42;61.37;96102.75;1699413;84;21090;-84
2022/02/15 09:19:13;;;;;;;9.13;6.30;;;;;;;6.47;61.44;96101.28;1699424;84;21106;-84
2022/02/15 09:21:39;;;;;;;9.40;6.42;;;;;;;6.45;61.56;96101.13;1699138;83;21040;-84
2022/02/15 09:24:06;;;;;;;17.75;13.00;;;;;;;6.45;61.91;96101.93;1699321;84;21370;-84
2022/02/15 09:26:32;;;;;;;34.00;22.17;;;;;;;6.44;62.10;96104.19;1699327;84;21003;-84
2022/02/15 09:28:58;;;;;;;33.88;21.95;;;;;;;6.49;62.55;96118.70;1699355;84;21413;-84
2022/02/15 09:31:24;;;;;;;17.62;12.58;;;;;;;6.54;62.60;96112.58;1699129;84;21039;-83
2022/02/15 09:33:55;;;;;;;35.73;24.52;;;;;;;6.61;62.82;96111.44;1699386;84;20996;-84
2022/02/15 09:36:22;;;;;;;25.57;18.55;;;;;;;6.68;62.45;96117.58;1698576;84;21011;-83
2022/02/15 09:38:47;;;;;;;23.75;16.57;;;;;;;6.76;62.98;96110.28;1698379;84;21031;-84
2022/02/15 09:41:14;;;;;;;38.08;26.82;;;;;;;6.79;62.75;96118.98;1699358;83;20956;-84
2022/02/15 09:43:40;;;;;;;41.25;29.42;;;;;;;6.85;62.65;96120.94;1674277;84;21008;-83
2022/02/15 09:46:09;;;;;;;47.30;29.77;;;;;;;6.91;62.65;96112.52;1699250;84;20972;-84
2022/02/15 09:48:37;;;;;;;39.65;28.02;;;;;;;7.00;63.17;96110.25;1697803;84;21015;-84
2022/02/15 09:51:04;;;;;;;34.45;26.12;;;;;;;7.10;62.97;96119.88;1699205;84;21013;-84
2022/02/15 09:53:29;;;;;;;32.00;23.70;;;;;;;7.19;61.85;96120.67;1699317;84;21022;-84
2022/02/15 09:55:55;;;;;;;32.08;22.22;;;;;;;7.28;61.93;96123.53;1682832;83;21024;-85
2022/02/15 09:58:21;;;;;;;41.60;30.00;;;;;;;7.35;62.60;96133.54;1676836;85;21372;-84
2022/02/15 10:00:46;;;;;;;40.03;27.52;;;;;;;7.43;62.62;96128.81;1677144;85;21016;-84
2022/02/15 10:03:15;;;;;;;40.73;29.20;;;;;;;7.49;61.89;96127.67;1677262;85;20969;-84
2022/02/15 10:05:40;;;;;;;44.10;29.92;;;;;;;7.53;61.75;96139.28;1677182;84;20989;-84
2022/02/15 10:08:06;;;;;;;43.98;30.43;;;;;;;7.56;61.93;96136.03;1677195;85;20985;-84
2022/02/15 10:10:34;;;;;;;45.35;31.95;;;;;;;7.64;62.09;96141.16;1677099;85;21395;-84
2022/02/15 10:13:08;;;;;;;35.15;25.97;;;;;;;7.69;61.67;96140.98;1677146;84;21005;-84
2022/02/15 10:15:39;;;;;;;40.60;28.47;;;;;;;7.72;61.33;96144.52;1677128;85;21045;-84
2022/02/15 10:18:12;;;;;;;38.73;26.62;;;;;;;7.72;61.18;96135.47;1657238;85;21143;-84
2022/02/15 10:20:44;;;;;;;37.40;27.55;;;;;;;7.73;61.03;96137.08;1679189;85;21017;-83
2022/02/15 10:23:23;;;;;;;39.23;28.47;;;;;;;7.76;61.14;96136.73;1677047;85;21036;-84
2022/02/15 10:25:51;;;;;;;32.38;24.05;;;;;;;7.81;61.12;96134.46;1677149;85;21016;-83
2022/02/15 10:28:20;;;;;;;30.62;20.27;;;;;;;7.90;60.56;96128.73;1655901;85;20977;-84
2022/02/15 10:30:49;;;;;;;29.82;19.82;;;;;;;7.93;59.81;96128.39;1677125;85;21045;-83
2022/02/15 10:33:17;;;;;;;30.27;22.20;;;;;;;8.00;59.90;96129.82;1677122;85;21328;-84
2022/02/15 10:36:03;;;;;;;28.83;20.23;;;;;;;8.04;59.97;96127.20;1677116;84;20984;-84
2022/02/15 10:38:44;;;;;;;31.07;21.23;;;;;;;8.12;59.89;96124.05;1677211;85;21019;-84
2022/02/15 10:41:16;;;;;;;22.70;15.63;;;;;;;8.22;59.42;96130.30;1677114;84;21004;-84
2022/02/15 10:43:56;;;;;;;22.75;15.40;;;;;;;8.30;58.57;96124.28;1677095;85;21048;-84
2022/02/15 10:46:29;;;;;;;20.68;15.15;;;;;;;8.36;58.23;96131.38;1677071;85;21056;-84
2022/02/15 10:48:55;;;;;;;24.05;15.55;;;;;;;8.45;58.01;96132.90;1676708;85;21423;-84
2022/02/15 10:51:22;;;;;;;21.70;15.63;;;;;;;8.50;58.16;96127.22;1677210;85;21051;-84
2022/02/15 10:53:48;;;;;;;18.02;14.03;;;;;;;8.57;57.43;96130.71;1677016;84;21000;-84
2022/02/15 10:56:14;;;;;;;20.17;14.53;;;;;;;8.63;57.03;96128.73;1688868;84;21126;-84
2022/02/15 10:58:40;;;;;;;15.65;10.05;;;;;;;8.69;56.95;96122.84;1698911;84;20964;-84
2022/02/15 11:01:10;;;;;;;11.22;8.35;;;;;;;8.73;55.85;96123.59;1699278;83;21008;-84
2022/02/15 11:03:39;;;;;;;15.20;11.65;;;;;;;8.81;55.28;96125.81;1699396;84;22269;-84
2022/02/15 11:22:44;;;;;;;8.40;5.70;;;;;;;9.70;52.81;96142.15;1773167;80;23432;-84
2022/02/15 11:25:10;;;;;;;7.47;5.90;;;;;;;9.72;51.55;96151.35;1781357;80;21059;-84
2022/02/15 11:27:36;;;;;;;9.25;5.87;;;;;;;9.78;51.84;96152.44;1746398;81;21113;-84
2022/02/15 11:30:02;;;;;;;7.85;5.55;;;;;;;9.82;52.37;96152.37;1793499;80;21078;-84
2022/02/15 11:32:35;;;;;;;8.75;6.00;;;;;;;9.87;52.23;96154.73;1779909;80;21011;-84
2022/02/15 11:35:12;;;;;;;9.25;6.20;;;;;;;9.87;50.65;96154.73;1789943;80;21066;-84
2022/02/15 11:37:38;;;;;;;10.25;8.15;;;;;;;9.83;50.64;96157.88;1784660;80;20999;-84
2022/02/15 11:40:07;;;;;;;8.95;7.22;;;;;;;9.82;50.98;96154.48;1796244;80;21015;-84
2022/02/15 11:42:42;;;;;;;8.60;6.15;;;;;;;9.79;49.98;96149.66;1787961;80;20975;-84
2022/02/15 11:45:26;;;;;;;10.08;6.92;;;;;;;9.77;51.23;96146.94;1781405;80;21020;-84
2022/02/15 11:47:53;;;;;;;10.05;6.70;;;;;;;9.74;51.05;96141.59;1789622;80;21073;-84
2022/02/15 11:50:18;;;;;;;8.65;7.28;;;;;;;9.73;51.78;96151.66;1783903;80;21201;-84
2022/02/15 11:52:44;;;;;;;11.60;7.25;;;;;;;9.72;51.89;96147.95;1774712;80;21439;-84